sensor_id;sensor_type;location;lat;lon;timestamp;P1;durP1;ratioP1;P2;durP2;ratioP2
39066;SDS011;24821;51.988;6.020;2023-09-18T00:00:40;10.13;;;9.32;;
39066;SDS011;24821;51.988;6.020;2023-09-18T00:03:07;10.95;;;9.15;;
39066;SDS011;24821;51.988;6.020;2023-09-18T00:05:33;10.45;;;9.40;;
39066;SDS011;24821;51.988;6.020;2023-09-18T00:07:59;11.35;;;10.18;;
39066;SDS011;24821;51.988;6.020;2023-09-18T00:10:26;11.07;;;10.07;;
39066;SDS011;24821;51.988;6.020;2023-09-18T00:12:53;10.07;;;9.23;;
39066;SDS011;24821;51.988;6.020;2023-09-18T00:15:19;14.18;;;11.30;;
39066;SDS011;24821;51.988;6.020;2023-09-18T00:17:45;10.82;;;9.48;;
39066;SDS011;24821;51.988;6.020;2023-09-18T00:20:11;10.65;;;9.73;;
39066;SDS011;24821;51.988;6.020;2023-09-18T00:22:36;11.15;;;10.05;;
39066;SDS011;24821;51.988;6.020;2023-09-18T00:25:02;12.73;;;11.70;;
39066;SDS011;24821;51.988;6.020;2023-09-18T00:27:28;11.52;;;10.35;;
39066;SDS011;24821;51.988;6.020;2023-09-18T00:29:54;10.85;;;9.85;;
39066;SDS011;24821;51.988;6.020;2023-09-18T00:32:20;10.73;;;9.77;;
39066;SDS011;24821;51.988;6.020;2023-09-18T00:34:46;10.95;;;9.98;;
39066;SDS011;24821;51.988;6.020;2023-09-18T00:37:11;10.70;;;9.75;;
39066;SDS011;24821;51.988;6.020;2023-09-18T00:39:37;11.60;;;10.40;;
39066;SDS011;24821;51.988;6.020;2023-09-18T00:42:03;11.07;;;10.02;;
39066;SDS011;24821;51.988;6.020;2023-09-18T00:44:29;10.50;;;9.65;;
39066;SDS011;24821;51.988;6.020;2023-09-18T00:46:55;10.55;;;9.63;;
39066;SDS011;24821;51.988;6.020;2023-09-18T00:49:21;9.43;;;8.73;;
39066;SDS011;24821;51.988;6.020;2023-09-18T00:51:49;9.35;;;8.55;;
39066;SDS011;24821;51.988;6.020;2023-09-18T00:54:16;13.75;;;10.13;;
39066;SDS011;24821;51.988;6.020;2023-09-18T00:56:44;12.38;;;11.27;;
39066;SDS011;24821;51.988;6.020;2023-09-18T00:59:12;10.07;;;9.15;;
39066;SDS011;24821;51.988;6.020;2023-09-18T01:01:38;10.38;;;9.57;;
39066;SDS011;24821;51.988;6.020;2023-09-18T01:04:05;12.30;;;11.30;;
39066;SDS011;24821;51.988;6.020;2023-09-18T01:06:32;10.80;;;9.93;;
39066;SDS011;24821;51.988;6.020;2023-09-18T01:08:58;12.27;;;11.18;;
39066;SDS011;24821;51.988;6.020;2023-09-18T01:11:36;11.68;;;10.63;;
39066;SDS011;24821;51.988;6.020;2023-09-18T01:16:53;10.55;;;9.63;;
39066;SDS011;24821;51.988;6.020;2023-09-18T01:19:39;10.52;;;9.55;;
39066;SDS011;24821;51.988;6.020;2023-09-18T01:22:10;13.05;;;11.90;;
39066;SDS011;24821;51.988;6.020;2023-09-18T01:24:38;11.15;;;10.25;;
39066;SDS011;24821;51.988;6.020;2023-09-18T01:27:05;11.02;;;10.02;;
39066;SDS011;24821;51.988;6.020;2023-09-18T01:29:33;12.85;;;11.52;;
39066;SDS011;24821;51.988;6.020;2023-09-18T01:31:58;11.50;;;10.18;;
39066;SDS011;24821;51.988;6.020;2023-09-18T01:34:34;13.40;;;12.02;;
39066;SDS011;24821;51.988;6.020;2023-09-18T01:37:05;12.73;;;11.63;;
39066;SDS011;24821;51.988;6.020;2023-09-18T01:39:32;12.63;;;11.40;;
39066;SDS011;24821;51.988;6.020;2023-09-18T01:41:59;16.30;;;10.95;;
39066;SDS011;24821;51.988;6.020;2023-09-18T01:44:34;13.43;;;12.05;;
39066;SDS011;24821;51.988;6.020;2023-09-18T01:47:03;12.20;;;11.23;;
39066;SDS011;24821;51.988;6.020;2023-09-18T01:49:32;11.50;;;10.50;;
39066;SDS011;24821;51.988;6.020;2023-09-18T01:52:03;11.43;;;10.48;;
39066;SDS011;24821;51.988;6.020;2023-09-18T01:54:30;12.52;;;11.38;;
39066;SDS011;24821;51.988;6.020;2023-09-18T01:56:57;10.35;;;9.32;;
39066;SDS011;24821;51.988;6.020;2023-09-18T01:59:23;10.25;;;9.55;;
39066;SDS011;24821;51.988;6.020;2023-09-18T02:01:49;13.18;;;11.88;;
39066;SDS011;24821;51.988;6.020;2023-09-18T02:04:16;11.02;;;10.07;;
39066;SDS011;24821;51.988;6.020;2023-09-18T02:06:42;10.23;;;9.38;;
39066;SDS011;24821;51.988;6.020;2023-09-18T02:09:08;10.90;;;10.00;;
39066;SDS011;24821;51.988;6.020;2023-09-18T02:11:36;11.82;;;10.65;;
39066;SDS011;24821;51.988;6.020;2023-09-18T02:14:03;11.20;;;10.02;;
39066;SDS011;24821;51.988;6.020;2023-09-18T02:16:32;10.32;;;9.43;;
39066;SDS011;24821;51.988;6.020;2023-09-18T02:18:58;11.40;;;10.32;;
39066;SDS011;24821;51.988;6.020;2023-09-18T02:21:24;10.70;;;9.80;;
39066;SDS011;24821;51.988;6.020;2023-09-18T02:23:50;10.18;;;9.32;;
39066;SDS011;24821;51.988;6.020;2023-09-18T02:26:17;8.88;;;8.18;;
39066;SDS011;24821;51.988;6.020;2023-09-18T02:28:43;10.52;;;9.55;;
39066;SDS011;24821;51.988;6.020;2023-09-18T02:31:09;11.40;;;10.32;;
39066;SDS011;24821;51.988;6.020;2023-09-18T02:33:35;11.15;;;9.90;;
39066;SDS011;24821;51.988;6.020;2023-09-18T02:36:01;9.60;;;8.90;;
39066;SDS011;24821;51.988;6.020;2023-09-18T02:38:27;9.35;;;8.55;;
39066;SDS011;24821;51.988;6.020;2023-09-18T02:40:53;12.85;;;10.07;;
39066;SDS011;24821;51.988;6.020;2023-09-18T02:43:19;9.65;;;8.80;;
39066;SDS011;24821;51.988;6.020;2023-09-18T02:45:45;10.32;;;9.38;;
39066;SDS011;24821;51.988;6.020;2023-09-18T02:48:11;10.95;;;9.90;;
39066;SDS011;24821;51.988;6.020;2023-09-18T02:50:37;10.98;;;10.07;;
39066;SDS011;24821;51.988;6.020;2023-09-18T02:53:05;10.10;;;9.30;;
39066;SDS011;24821;51.988;6.020;2023-09-18T02:55:31;9.70;;;8.88;;
39066;SDS011;24821;51.988;6.020;2023-09-18T02:57:56;9.48;;;8.68;;
39066;SDS011;24821;51.988;6.020;2023-09-18T03:00:22;10.60;;;9.73;;
39066;SDS011;24821;51.988;6.020;2023-09-18T03:02:47;10.30;;;9.43;;
39066;SDS011;24821;51.988;6.020;2023-09-18T03:05:13;9.57;;;8.85;;
39066;SDS011;24821;51.988;6.020;2023-09-18T03:07:38;9.18;;;8.48;;
39066;SDS011;24821;51.988;6.020;2023-09-18T03:10:04;10.43;;;9.00;;
39066;SDS011;24821;51.988;6.020;2023-09-18T03:12:30;10.30;;;9.40;;
39066;SDS011;24821;51.988;6.020;2023-09-18T03:14:56;10.02;;;9.10;;
39066;SDS011;24821;51.988;6.020;2023-09-18T03:17:22;10.27;;;9.48;;
39066;SDS011;24821;51.988;6.020;2023-09-18T03:19:48;9.30;;;8.52;;
39066;SDS011;24821;51.988;6.020;2023-09-18T03:22:14;10.30;;;9.27;;
39066;SDS011;24821;51.988;6.020;2023-09-18T03:24:40;9.80;;;8.90;;
39066;SDS011;24821;51.988;6.020;2023-09-18T03:27:05;8.95;;;8.27;;
39066;SDS011;24821;51.988;6.020;2023-09-18T03:29:31;8.93;;;8.18;;
39066;SDS011;24821;51.988;6.020;2023-09-18T03:31:57;8.55;;;7.72;;
39066;SDS011;24821;51.988;6.020;2023-09-18T03:34:24;9.52;;;8.70;;
39066;SDS011;24821;51.988;6.020;2023-09-18T03:36:52;8.88;;;8.18;;
39066;SDS011;24821;51.988;6.020;2023-09-18T03:39:19;9.68;;;8.85;;
39066;SDS011;24821;51.988;6.020;2023-09-18T03:41:45;8.65;;;7.85;;
39066;SDS011;24821;51.988;6.020;2023-09-18T03:44:10;7.82;;;7.13;;
39066;SDS011;24821;51.988;6.020;2023-09-18T03:46:36;8.90;;;8.10;;
39066;SDS011;24821;51.988;6.020;2023-09-18T03:49:02;8.63;;;7.72;;
39066;SDS011;24821;51.988;6.020;2023-09-18T03:51:28;9.35;;;8.52;;
39066;SDS011;24821;51.988;6.020;2023-09-18T03:53:54;9.10;;;8.40;;
39066;SDS011;24821;51.988;6.020;2023-09-18T03:56:20;9.55;;;8.75;;
39066;SDS011;24821;51.988;6.020;2023-09-18T03:58:46;8.93;;;8.07;;
39066;SDS011;24821;51.988;6.020;2023-09-18T04:01:14;10.43;;;9.40;;
39066;SDS011;24821;51.988;6.020;2023-09-18T04:03:40;11.70;;;8.63;;
39066;SDS011;24821;51.988;6.020;2023-09-18T04:06:06;18.63;;;10.52;;
39066;SDS011;24821;51.988;6.020;2023-09-18T04:08:32;10.40;;;9.40;;
39066;SDS011;24821;51.988;6.020;2023-09-18T04:10:57;10.32;;;9.32;;
39066;SDS011;24821;51.988;6.020;2023-09-18T04:13:23;10.43;;;9.43;;
39066;SDS011;24821;51.988;6.020;2023-09-18T04:15:49;8.45;;;7.75;;
39066;SDS011;24821;51.988;6.020;2023-09-18T04:18:15;9.13;;;8.32;;
39066;SDS011;24821;51.988;6.020;2023-09-18T04:20:40;9.80;;;9.00;;
39066;SDS011;24821;51.988;6.020;2023-09-18T04:23:19;13.27;;;8.75;;
39066;SDS011;24821;51.988;6.020;2023-09-18T04:25:47;10.68;;;9.52;;
39066;SDS011;24821;51.988;6.020;2023-09-18T04:28:13;8.25;;;7.55;;
39066;SDS011;24821;51.988;6.020;2023-09-18T04:30:40;10.15;;;9.15;;
39066;SDS011;24821;51.988;6.020;2023-09-18T04:33:06;8.25;;;7.65;;
39066;SDS011;24821;51.988;6.020;2023-09-18T04:35:31;12.98;;;10.60;;
39066;SDS011;24821;51.988;6.020;2023-09-18T04:37:58;9.43;;;8.63;;
39066;SDS011;24821;51.988;6.020;2023-09-18T04:40:24;9.57;;;8.88;;
39066;SDS011;24821;51.988;6.020;2023-09-18T04:42:51;8.90;;;8.00;;
39066;SDS011;24821;51.988;6.020;2023-09-18T04:45:17;8.48;;;7.78;;
39066;SDS011;24821;51.988;6.020;2023-09-18T04:47:43;9.02;;;8.32;;
39066;SDS011;24821;51.988;6.020;2023-09-18T04:50:09;9.43;;;8.50;;
39066;SDS011;24821;51.988;6.020;2023-09-18T04:52:35;10.68;;;9.68;;
39066;SDS011;24821;51.988;6.020;2023-09-18T04:55:01;8.68;;;7.88;;
39066;SDS011;24821;51.988;6.020;2023-09-18T04:57:26;10.30;;;8.20;;
39066;SDS011;24821;51.988;6.020;2023-09-18T04:59:52;9.52;;;8.70;;
39066;SDS011;24821;51.988;6.020;2023-09-18T05:02:17;9.23;;;8.25;;
39066;SDS011;24821;51.988;6.020;2023-09-18T05:04:43;9.18;;;7.95;;
39066;SDS011;24821;51.988;6.020;2023-09-18T05:07:09;9.25;;;7.68;;
39066;SDS011;24821;51.988;6.020;2023-09-18T05:09:34;9.77;;;9.00;;
39066;SDS011;24821;51.988;6.020;2023-09-18T05:12:01;9.32;;;8.57;;
39066;SDS011;24821;51.988;6.020;2023-09-18T05:14:29;9.23;;;8.52;;
39066;SDS011;24821;51.988;6.020;2023-09-18T05:16:55;9.27;;;8.00;;
39066;SDS011;24821;51.988;6.020;2023-09-18T05:19:20;8.30;;;7.60;;
39066;SDS011;24821;51.988;6.020;2023-09-18T05:21:46;7.78;;;7.15;;
39066;SDS011;24821;51.988;6.020;2023-09-18T05:24:13;8.50;;;7.80;;
39066;SDS011;24821;51.988;6.020;2023-09-18T05:26:38;10.57;;;6.80;;
39066;SDS011;24821;51.988;6.020;2023-09-18T05:29:04;15.85;;;7.50;;
39066;SDS011;24821;51.988;6.020;2023-09-18T05:31:29;11.25;;;8.73;;
39066;SDS011;24821;51.988;6.020;2023-09-18T05:33:55;11.35;;;7.60;;
39066;SDS011;24821;51.988;6.020;2023-09-18T05:36:21;7.45;;;6.85;;
39066;SDS011;24821;51.988;6.020;2023-09-18T05:38:46;7.55;;;6.80;;
39066;SDS011;24821;51.988;6.020;2023-09-18T05:41:12;6.93;;;6.30;;
39066;SDS011;24821;51.988;6.020;2023-09-18T05:43:37;9.27;;;8.48;;
39066;SDS011;24821;51.988;6.020;2023-09-18T05:46:03;11.18;;;8.07;;
39066;SDS011;24821;51.988;6.020;2023-09-18T05:48:28;7.78;;;7.15;;
39066;SDS011;24821;51.988;6.020;2023-09-18T05:50:54;9.05;;;7.32;;
39066;SDS011;24821;51.988;6.020;2023-09-18T05:53:20;8.18;;;7.50;;
39066;SDS011;24821;51.988;6.020;2023-09-18T05:55:46;8.85;;;8.10;;
39066;SDS011;24821;51.988;6.020;2023-09-18T05:58:12;8.35;;;7.10;;
39066;SDS011;24821;51.988;6.020;2023-09-18T06:00:39;8.27;;;6.95;;
39066;SDS011;24821;51.988;6.020;2023-09-18T06:03:05;7.45;;;6.95;;
39066;SDS011;24821;51.988;6.020;2023-09-18T06:05:31;8.20;;;7.43;;
39066;SDS011;24821;51.988;6.020;2023-09-18T06:07:58;9.32;;;7.60;;
39066;SDS011;24821;51.988;6.020;2023-09-18T06:10:24;9.50;;;8.27;;
39066;SDS011;24821;51.988;6.020;2023-09-18T06:12:50;12.02;;;7.68;;
39066;SDS011;24821;51.988;6.020;2023-09-18T06:15:15;10.25;;;7.90;;
39066;SDS011;24821;51.988;6.020;2023-09-18T06:17:42;9.30;;;8.52;;
39066;SDS011;24821;51.988;6.020;2023-09-18T06:20:08;9.15;;;8.25;;
39066;SDS011;24821;51.988;6.020;2023-09-18T06:22:35;11.25;;;8.70;;
39066;SDS011;24821;51.988;6.020;2023-09-18T06:25:02;8.85;;;8.23;;
39066;SDS011;24821;51.988;6.020;2023-09-18T06:27:28;9.20;;;7.78;;
39066;SDS011;24821;51.988;6.020;2023-09-18T06:29:53;9.77;;;6.97;;
39066;SDS011;24821;51.988;6.020;2023-09-18T06:32:19;8.95;;;8.25;;
39066;SDS011;24821;51.988;6.020;2023-09-18T06:34:44;8.93;;;8.15;;
39066;SDS011;24821;51.988;6.020;2023-09-18T06:37:12;8.15;;;7.55;;
39066;SDS011;24821;51.988;6.020;2023-09-18T06:39:38;6.88;;;6.43;;
39066;SDS011;24821;51.988;6.020;2023-09-18T06:42:04;9.25;;;7.90;;
39066;SDS011;24821;51.988;6.020;2023-09-18T06:44:29;11.95;;;7.82;;
39066;SDS011;24821;51.988;6.020;2023-09-18T06:46:55;8.75;;;7.95;;
39066;SDS011;24821;51.988;6.020;2023-09-18T06:49:21;8.95;;;8.20;;
39066;SDS011;24821;51.988;6.020;2023-09-18T06:51:46;7.97;;;7.43;;
39066;SDS011;24821;51.988;6.020;2023-09-18T06:54:12;8.38;;;7.57;;
39066;SDS011;24821;51.988;6.020;2023-09-18T06:56:37;7.47;;;6.78;;
39066;SDS011;24821;51.988;6.020;2023-09-18T06:59:03;7.30;;;6.75;;
39066;SDS011;24821;51.988;6.020;2023-09-18T07:01:29;8.60;;;7.50;;
39066;SDS011;24821;51.988;6.020;2023-09-18T07:03:58;12.13;;;7.22;;
39066;SDS011;24821;51.988;6.020;2023-09-18T07:06:24;8.55;;;7.72;;
39066;SDS011;24821;51.988;6.020;2023-09-18T07:08:50;8.30;;;7.68;;
39066;SDS011;24821;51.988;6.020;2023-09-18T07:11:16;8.30;;;7.70;;
39066;SDS011;24821;51.988;6.020;2023-09-18T07:13:42;7.63;;;6.97;;
39066;SDS011;24821;51.988;6.020;2023-09-18T07:16:09;6.95;;;6.35;;
39066;SDS011;24821;51.988;6.020;2023-09-18T07:18:35;6.85;;;6.07;;
39066;SDS011;24821;51.988;6.020;2023-09-18T07:21:01;6.18;;;5.85;;
39066;SDS011;24821;51.988;6.020;2023-09-18T07:23:27;6.30;;;5.90;;
39066;SDS011;24821;51.988;6.020;2023-09-18T07:25:52;9.73;;;7.00;;
39066;SDS011;24821;51.988;6.020;2023-09-18T07:28:18;6.38;;;5.90;;
39066;SDS011;24821;51.988;6.020;2023-09-18T07:30:45;5.90;;;5.60;;
39066;SDS011;24821;51.988;6.020;2023-09-18T07:33:11;11.10;;;6.25;;
39066;SDS011;24821;51.988;6.020;2023-09-18T07:35:40;6.55;;;6.00;;
39066;SDS011;24821;51.988;6.020;2023-09-18T07:38:05;5.22;;;4.72;;
39066;SDS011;24821;51.988;6.020;2023-09-18T07:40:31;7.30;;;4.97;;
39066;SDS011;24821;51.988;6.020;2023-09-18T07:42:56;5.55;;;5.25;;
39066;SDS011;24821;51.988;6.020;2023-09-18T07:45:23;5.60;;;5.28;;
39066;SDS011;24821;51.988;6.020;2023-09-18T07:47:49;4.90;;;4.60;;
39066;SDS011;24821;51.988;6.020;2023-09-18T07:50:14;4.80;;;4.40;;
39066;SDS011;24821;51.988;6.020;2023-09-18T07:52:40;4.22;;;4.03;;
39066;SDS011;24821;51.988;6.020;2023-09-18T07:55:05;5.05;;;4.75;;
39066;SDS011;24821;51.988;6.020;2023-09-18T07:57:32;4.90;;;4.45;;
39066;SDS011;24821;51.988;6.020;2023-09-18T07:59:59;4.03;;;3.83;;
39066;SDS011;24821;51.988;6.020;2023-09-18T08:02:32;5.63;;;4.97;;
39066;SDS011;24821;51.988;6.020;2023-09-18T08:04:57;4.10;;;3.90;;
39066;SDS011;24821;51.988;6.020;2023-09-18T08:07:23;3.97;;;3.78;;
39066;SDS011;24821;51.988;6.020;2023-09-18T08:09:48;4.10;;;3.90;;
39066;SDS011;24821;51.988;6.020;2023-09-18T08:12:14;3.97;;;3.78;;
39066;SDS011;24821;51.988;6.020;2023-09-18T08:14:39;4.15;;;3.95;;
39066;SDS011;24821;51.988;6.020;2023-09-18T08:17:05;5.25;;;3.80;;
39066;SDS011;24821;51.988;6.020;2023-09-18T08:19:32;4.45;;;4.15;;
39066;SDS011;24821;51.988;6.020;2023-09-18T08:21:58;6.78;;;3.65;;
39066;SDS011;24821;51.988;6.020;2023-09-18T08:24:28;4.13;;;3.88;;
39066;SDS011;24821;51.988;6.020;2023-09-18T08:26:54;3.80;;;3.60;;
39066;SDS011;24821;51.988;6.020;2023-09-18T08:29:20;4.53;;;4.22;;
39066;SDS011;24821;51.988;6.020;2023-09-18T08:31:47;4.05;;;3.85;;
39066;SDS011;24821;51.988;6.020;2023-09-18T08:34:14;3.75;;;3.55;;
39066;SDS011;24821;51.988;6.020;2023-09-18T08:36:39;3.67;;;3.38;;
39066;SDS011;24821;51.988;6.020;2023-09-18T08:39:05;4.00;;;3.75;;
39066;SDS011;24821;51.988;6.020;2023-09-18T08:41:31;3.10;;;2.90;;
39066;SDS011;24821;51.988;6.020;2023-09-18T08:44:01;3.80;;;3.60;;
39066;SDS011;24821;51.988;6.020;2023-09-18T08:46:28;3.80;;;3.60;;
39066;SDS011;24821;51.988;6.020;2023-09-18T08:48:59;5.70;;;4.35;;
39066;SDS011;24821;51.988;6.020;2023-09-18T08:51:25;3.55;;;3.35;;
39066;SDS011;24821;51.988;6.020;2023-09-18T08:53:52;4.68;;;4.20;;
39066;SDS011;24821;51.988;6.020;2023-09-18T08:56:19;4.60;;;4.30;;
39066;SDS011;24821;51.988;6.020;2023-09-18T08:58:46;3.40;;;3.20;;
39066;SDS011;24821;51.988;6.020;2023-09-18T09:01:12;4.05;;;3.75;;
39066;SDS011;24821;51.988;6.020;2023-09-18T09:03:39;4.10;;;3.67;;
39066;SDS011;24821;51.988;6.020;2023-09-18T09:06:06;3.67;;;3.42;;
39066;SDS011;24821;51.988;6.020;2023-09-18T09:08:33;4.13;;;3.92;;
39066;SDS011;24821;51.988;6.020;2023-09-18T09:10:59;6.50;;;3.25;;
39066;SDS011;24821;51.988;6.020;2023-09-18T09:13:24;3.83;;;3.60;;
39066;SDS011;24821;51.988;6.020;2023-09-18T09:15:54;3.95;;;3.65;;
39066;SDS011;24821;51.988;6.020;2023-09-18T09:18:22;3.88;;;3.55;;
39066;SDS011;24821;51.988;6.020;2023-09-18T09:20:57;3.55;;;3.35;;
39066;SDS011;24821;51.988;6.020;2023-09-18T09:23:25;3.28;;;3.17;;
39066;SDS011;24821;51.988;6.020;2023-09-18T09:25:51;4.28;;;3.80;;
39066;SDS011;24821;51.988;6.020;2023-09-18T09:28:28;4.07;;;3.88;;
39066;SDS011;24821;51.988;6.020;2023-09-18T09:30:59;3.75;;;3.63;;
39066;SDS011;24821;51.988;6.020;2023-09-18T09:33:29;4.17;;;3.93;;
39066;SDS011;24821;51.988;6.020;2023-09-18T09:35:55;3.83;;;3.63;;
39066;SDS011;24821;51.988;6.020;2023-09-18T09:38:22;3.55;;;3.25;;
39066;SDS011;24821;51.988;6.020;2023-09-18T09:40:56;4.18;;;3.97;;
39066;SDS011;24821;51.988;6.020;2023-09-18T09:43:22;4.38;;;3.97;;
39066;SDS011;24821;51.988;6.020;2023-09-18T09:45:47;3.60;;;3.35;;
39066;SDS011;24821;51.988;6.020;2023-09-18T09:48:13;4.13;;;3.83;;
39066;SDS011;24821;51.988;6.020;2023-09-18T09:50:46;3.75;;;3.47;;
39066;SDS011;24821;51.988;6.020;2023-09-18T09:53:13;3.63;;;3.42;;
39066;SDS011;24821;51.988;6.020;2023-09-18T09:55:40;3.63;;;3.35;;
39066;SDS011;24821;51.988;6.020;2023-09-18T09:58:06;3.38;;;3.28;;
39066;SDS011;24821;51.988;6.020;2023-09-18T10:00:33;4.07;;;3.78;;
39066;SDS011;24821;51.988;6.020;2023-09-18T10:03:08;3.92;;;3.72;;
39066;SDS011;24821;51.988;6.020;2023-09-18T10:05:41;4.95;;;4.65;;
39066;SDS011;24821;51.988;6.020;2023-09-18T10:08:12;4.70;;;4.40;;
39066;SDS011;24821;51.988;6.020;2023-09-18T10:10:51;5.70;;;4.68;;
39066;SDS011;24821;51.988;6.020;2023-09-18T10:13:19;3.88;;;3.67;;
39066;SDS011;24821;51.988;6.020;2023-09-18T10:15:51;3.90;;;3.67;;
39066;SDS011;24821;51.988;6.020;2023-09-18T10:21:06;3.47;;;3.28;;
39066;SDS011;24821;51.988;6.020;2023-09-18T10:23:49;3.97;;;3.78;;
39066;SDS011;24821;51.988;6.020;2023-09-18T10:26:22;7.82;;;5.15;;
39066;SDS011;24821;51.988;6.020;2023-09-18T10:28:51;3.92;;;3.72;;
39066;SDS011;24821;51.988;6.020;2023-09-18T10:31:21;5.25;;;5.05;;
39066;SDS011;24821;51.988;6.020;2023-09-18T10:33:47;5.55;;;5.25;;
39066;SDS011;24821;51.988;6.020;2023-09-18T10:36:15;5.25;;;4.97;;
39066;SDS011;24821;51.988;6.020;2023-09-18T10:38:42;6.90;;;6.47;;
39066;SDS011;24821;51.988;6.020;2023-09-18T10:41:14;6.53;;;6.05;;
39066;SDS011;24821;51.988;6.020;2023-09-18T10:43:43;4.90;;;4.63;;
39066;SDS011;24821;51.988;6.020;2023-09-18T10:46:10;5.82;;;5.43;;
39066;SDS011;24821;51.988;6.020;2023-09-18T10:48:38;5.35;;;5.15;;
39066;SDS011;24821;51.988;6.020;2023-09-18T10:51:06;4.55;;;4.35;;
39066;SDS011;24821;51.988;6.020;2023-09-18T10:53:31;5.40;;;4.93;;
39066;SDS011;24821;51.988;6.020;2023-09-18T10:55:57;8.27;;;4.72;;
39066;SDS011;24821;51.988;6.020;2023-09-18T10:58:23;6.00;;;4.93;;
39066;SDS011;24821;51.988;6.020;2023-09-18T11:00:50;5.18;;;4.70;;
39066;SDS011;24821;51.988;6.020;2023-09-18T11:03:17;4.70;;;4.28;;
39066;SDS011;24821;51.988;6.020;2023-09-18T11:05:44;5.20;;;4.88;;
39066;SDS011;24821;51.988;6.020;2023-09-18T11:08:30;5.57;;;5.18;;
39066;SDS011;24821;51.988;6.020;2023-09-18T11:11:01;4.85;;;4.55;;
39066;SDS011;24821;51.988;6.020;2023-09-18T11:13:35;6.15;;;4.53;;
39066;SDS011;24821;51.988;6.020;2023-09-18T11:21:27;5.15;;;4.85;;
39066;SDS011;24821;51.988;6.020;2023-09-18T11:23:57;5.63;;;5.20;;
39066;SDS011;24821;51.988;6.020;2023-09-18T11:26:23;5.65;;;4.35;;
39066;SDS011;24821;51.988;6.020;2023-09-18T11:28:53;4.22;;;3.92;;
39066;SDS011;24821;51.988;6.020;2023-09-18T11:31:19;4.30;;;4.10;;
39066;SDS011;24821;51.988;6.020;2023-09-18T11:33:47;3.95;;;3.50;;
39066;SDS011;24821;51.988;6.020;2023-09-18T11:36:13;4.65;;;4.18;;
39066;SDS011;24821;51.988;6.020;2023-09-18T11:38:59;3.25;;;2.95;;
39066;SDS011;24821;51.988;6.020;2023-09-18T11:41:32;4.15;;;3.75;;
39066;SDS011;24821;51.988;6.020;2023-09-18T11:46:37;4.25;;;4.05;;
39066;SDS011;24821;51.988;6.020;2023-09-18T11:49:05;5.10;;;3.70;;
39066;SDS011;24821;51.988;6.020;2023-09-18T11:51:33;4.72;;;3.85;;
39066;SDS011;24821;51.988;6.020;2023-09-18T11:54:00;3.90;;;3.58;;
39066;SDS011;24821;51.988;6.020;2023-09-18T11:56:28;4.15;;;3.83;;
39066;SDS011;24821;51.988;6.020;2023-09-18T11:58:54;6.97;;;3.70;;
39066;SDS011;24821;51.988;6.020;2023-09-18T12:01:20;3.50;;;3.30;;
39066;SDS011;24821;51.988;6.020;2023-09-18T12:03:53;8.88;;;4.40;;
39066;SDS011;24821;51.988;6.020;2023-09-18T12:06:19;6.07;;;4.68;;
39066;SDS011;24821;51.988;6.020;2023-09-18T12:08:46;5.00;;;4.75;;
39066;SDS011;24821;51.988;6.020;2023-09-18T12:11:12;7.47;;;5.22;;
39066;SDS011;24821;51.988;6.020;2023-09-18T12:13:42;5.00;;;4.68;;
39066;SDS011;24821;51.988;6.020;2023-09-18T12:16:08;5.82;;;5.43;;
39066;SDS011;24821;51.988;6.020;2023-09-18T12:18:34;6.20;;;5.88;;
39066;SDS011;24821;51.988;6.020;2023-09-18T12:21:05;7.80;;;6.22;;
39066;SDS011;24821;51.988;6.020;2023-09-18T12:23:38;4.82;;;4.63;;
39066;SDS011;24821;51.988;6.020;2023-09-18T12:26:04;5.15;;;4.75;;
39066;SDS011;24821;51.988;6.020;2023-09-18T12:28:32;4.57;;;4.20;;
39066;SDS011;24821;51.988;6.020;2023-09-18T12:31:00;4.43;;;4.13;;
39066;SDS011;24821;51.988;6.020;2023-09-18T12:33:29;4.38;;;3.97;;
39066;SDS011;24821;51.988;6.020;2023-09-18T12:35:58;4.70;;;4.25;;
39066;SDS011;24821;51.988;6.020;2023-09-18T12:38:24;4.72;;;4.03;;
39066;SDS011;24821;51.988;6.020;2023-09-18T12:40:52;4.43;;;4.13;;
39066;SDS011;24821;51.988;6.020;2023-09-18T12:43:20;4.82;;;4.38;;
39066;SDS011;24821;51.988;6.020;2023-09-18T12:45:47;4.13;;;3.83;;
39066;SDS011;24821;51.988;6.020;2023-09-18T12:48:14;5.80;;;3.70;;
39066;SDS011;24821;51.988;6.020;2023-09-18T12:50:40;7.82;;;4.00;;
39066;SDS011;24821;51.988;6.020;2023-09-18T12:53:10;5.75;;;3.92;;
39066;SDS011;24821;51.988;6.020;2023-09-18T12:55:37;3.88;;;3.45;;
39066;SDS011;24821;51.988;6.020;2023-09-18T12:58:03;3.88;;;3.60;;
39066;SDS011;24821;51.988;6.020;2023-09-18T13:00:32;5.00;;;4.57;;
39066;SDS011;24821;51.988;6.020;2023-09-18T13:02:58;3.88;;;3.65;;
39066;SDS011;24821;51.988;6.020;2023-09-18T13:05:25;4.57;;;4.28;;
39066;SDS011;24821;51.988;6.020;2023-09-18T13:07:51;4.43;;;4.03;;
39066;SDS011;24821;51.988;6.020;2023-09-18T13:10:20;5.65;;;3.97;;
39066;SDS011;24821;51.988;6.020;2023-09-18T13:12:48;4.90;;;4.28;;
39066;SDS011;24821;51.988;6.020;2023-09-18T13:17:52;2.97;;;2.78;;
39066;SDS011;24821;51.988;6.020;2023-09-18T13:20:28;5.30;;;3.15;;
39066;SDS011;24821;51.988;6.020;2023-09-18T13:22:55;3.55;;;3.35;;
39066;SDS011;24821;51.988;6.020;2023-09-18T13:25:23;5.70;;;3.22;;
39066;SDS011;24821;51.988;6.020;2023-09-18T13:27:50;3.85;;;3.38;;
39066;SDS011;24821;51.988;6.020;2023-09-18T13:30:16;3.05;;;2.90;;
39066;SDS011;24821;51.988;6.020;2023-09-18T13:32:43;3.17;;;2.97;;
39066;SDS011;24821;51.988;6.020;2023-09-18T13:35:10;2.50;;;2.40;;
39066;SDS011;24821;51.988;6.020;2023-09-18T13:37:37;2.95;;;2.75;;
39066;SDS011;24821;51.988;6.020;2023-09-18T13:40:04;6.47;;;2.65;;
39066;SDS011;24821;51.988;6.020;2023-09-18T13:42:32;3.50;;;3.30;;
39066;SDS011;24821;51.988;6.020;2023-09-18T13:44:58;3.10;;;2.90;;
39066;SDS011;24821;51.988;6.020;2023-09-18T13:47:31;2.45;;;2.30;;
39066;SDS011;24821;51.988;6.020;2023-09-18T13:49:57;2.15;;;2.03;;
39066;SDS011;24821;51.988;6.020;2023-09-18T13:52:31;2.63;;;2.38;;
39066;SDS011;24821;51.988;6.020;2023-09-18T13:54:58;2.88;;;2.72;;
39066;SDS011;24821;51.988;6.020;2023-09-18T13:57:24;3.05;;;2.85;;
39066;SDS011;24821;51.988;6.020;2023-09-18T13:59:50;2.28;;;2.17;;
39066;SDS011;24821;51.988;6.020;2023-09-18T14:02:16;2.85;;;2.60;;
39066;SDS011;24821;51.988;6.020;2023-09-18T14:04:43;7.32;;;3.03;;
39066;SDS011;24821;51.988;6.020;2023-09-18T14:07:09;2.45;;;2.35;;
39066;SDS011;24821;51.988;6.020;2023-09-18T14:09:36;2.70;;;2.60;;
39066;SDS011;24821;51.988;6.020;2023-09-18T14:12:02;2.75;;;2.55;;
39066;SDS011;24821;51.988;6.020;2023-09-18T14:14:29;4.70;;;2.63;;
39066;SDS011;24821;51.988;6.020;2023-09-18T14:16:54;2.22;;;1.90;;
39066;SDS011;24821;51.988;6.020;2023-09-18T14:19:20;2.60;;;2.20;;
39066;SDS011;24821;51.988;6.020;2023-09-18T14:21:46;2.17;;;2.08;;
39066;SDS011;24821;51.988;6.020;2023-09-18T14:24:14;2.60;;;2.40;;
39066;SDS011;24821;51.988;6.020;2023-09-18T14:26:40;2.22;;;2.13;;
39066;SDS011;24821;51.988;6.020;2023-09-18T14:29:07;2.72;;;2.53;;
39066;SDS011;24821;51.988;6.020;2023-09-18T14:31:33;2.05;;;1.95;;
39066;SDS011;24821;51.988;6.020;2023-09-18T14:33:59;3.85;;;2.17;;
39066;SDS011;24821;51.988;6.020;2023-09-18T14:36:25;2.20;;;2.10;;
39066;SDS011;24821;51.988;6.020;2023-09-18T14:38:51;2.78;;;2.30;;
39066;SDS011;24821;51.988;6.020;2023-09-18T14:41:17;4.40;;;2.45;;
39066;SDS011;24821;51.988;6.020;2023-09-18T14:43:44;2.22;;;2.03;;
39066;SDS011;24821;51.988;6.020;2023-09-18T14:46:10;2.45;;;2.30;;
39066;SDS011;24821;51.988;6.020;2023-09-18T14:48:36;2.70;;;2.50;;
39066;SDS011;24821;51.988;6.020;2023-09-18T14:51:01;2.55;;;2.45;;
39066;SDS011;24821;51.988;6.020;2023-09-18T14:53:27;3.15;;;2.50;;
39066;SDS011;24821;51.988;6.020;2023-09-18T14:55:53;2.67;;;2.35;;
39066;SDS011;24821;51.988;6.020;2023-09-18T14:58:20;9.77;;;2.50;;